Time;durP1;ratioP1;P1;durP2;ratioP2;P2;SDS_P1;SDS_P2;PMS_P1;PMS_P2;Temp;Humidity;BMP_temperature;BMP_pressure;BME280_temperature;BME280_humidity;BME280_pressure;Samples;Min_cycle;Max_cycle;Signal;HPM_P1;HPM_P2
2023/07/14 00:01:21;;;;;;;11.45;7.68;;;15.00;99.90;;;;;;5111838;27;20042;-64
2023/07/14 00:03:48;;;;;;;10.90;7.07;;;14.90;99.90;;;;;;5110492;28;20043;-64
2023/07/14 00:06:15;;;;;;;11.13;7.40;;;14.90;99.90;;;;;;5110593;27;20513;-64
2023/07/14 00:08:41;;;;;;;13.40;7.35;;;14.90;99.90;;;;;;5110142;28;20088;-64
2023/07/14 00:11:25;;;;;;;12.43;7.90;;;14.90;99.90;;;;;;5110655;28;20043;-65
2023/07/14 00:13:53;;;;;;;11.30;8.35;;;14.90;99.90;;;;;;5145062;27;20118;-66
2023/07/14 00:16:24;;;;;;;12.57;7.90;;;14.80;99.90;;;;;;5110831;28;20394;-63
2023/07/14 00:18:50;;;;;;;10.05;7.95;;;14.90;99.90;;;;;;5109428;28;20047;-64
2023/07/14 00:21:21;;;;;;;12.90;8.45;;;14.80;99.90;;;;;;5092749;28;20044;-63
2023/07/14 00:23:47;;;;;;;9.55;7.82;;;14.90;99.90;;;;;;5110277;27;20043;-63
2023/07/14 00:26:15;;;;;;;10.10;8.05;;;14.90;99.90;;;;;;5110287;28;20417;-64
2023/07/14 00:28:42;;;;;;;10.27;7.65;;;14.80;99.90;;;;;;5109763;27;20043;-64
2023/07/14 00:31:16;;;;;;;11.15;8.13;;;14.80;99.90;;;;;;5111424;28;20027;-64
2023/07/14 00:33:44;;;;;;;11.13;7.93;;;14.80;99.90;;;;;;5110217;28;20513;-64
2023/07/14 00:36:11;;;;;;;9.43;7.72;;;14.80;99.90;;;;;;5109886;28;20114;-63
2023/07/14 00:38:37;;;;;;;10.48;7.72;;;14.80;99.90;;;;;;5109874;27;20456;-65
2023/07/14 00:41:07;;;;;;;10.27;7.82;;;14.90;99.90;;;;;;5110692;27;20035;-63
2023/07/14 00:43:34;;;;;;;9.38;8.07;;;14.80;99.90;;;;;;5110041;28;20061;-64
2023/07/14 00:46:00;;;;;;;9.55;7.40;;;14.80;99.90;;;;;;5093231;28;20051;-64
2023/07/14 00:48:28;;;;;;;11.95;8.02;;;14.80;99.90;;;;;;5108592;28;20055;-65
2023/07/14 00:51:10;;;;;;;10.75;7.85;;;14.80;99.90;;;;;;5110173;28;20371;-65
2023/07/14 00:53:41;;;;;;;8.53;7.60;;;14.80;99.90;;;;;;5109864;28;20046;-64
2023/07/14 00:56:12;;;;;;;12.35;7.57;;;14.80;99.90;;;;;;5110192;28;20076;-64
2023/07/14 00:58:49;;;;;;;9.02;7.53;;;14.80;99.90;;;;;;5110159;27;20045;-64
2023/07/14 01:01:21;;;;;;;10.25;6.68;;;14.70;99.90;;;;;;5092015;28;20027;-64
2023/07/14 01:03:50;;;;;;;9.48;8.32;;;14.70;99.90;;;;;;5091202;28;20032;-65
2023/07/14 01:06:21;;;;;;;8.18;7.15;;;14.70;99.90;;;;;;5109695;28;20066;-64
2023/07/14 01:08:54;;;;;;;10.27;7.22;;;14.70;99.90;;;;;;5109731;28;20031;-64
2023/07/14 01:11:25;;;;;;;7.60;6.80;;;14.60;99.90;;;;;;5109992;27;20105;-64
2023/07/14 01:13:51;;;;;;;11.25;7.72;;;14.60;99.90;;;;;;5109109;28;20050;-64
2023/07/14 01:16:18;;;;;;;10.02;7.85;;;14.50;99.90;;;;;;5112165;28;20478;-64
2023/07/14 01:18:46;;;;;;;11.50;7.90;;;14.50;99.90;;;;;;5109632;28;20043;-64
2023/07/14 01:21:12;;;;;;;9.05;7.63;;;14.40;99.90;;;;;;5109480;28;20123;-64
2023/07/14 01:23:56;;;;;;;10.13;7.75;;;14.40;99.90;;;;;;5109885;28;20123;-65
2023/07/14 01:26:47;;;;;;;8.70;7.55;;;14.40;99.90;;;;;;5109465;28;20054;-64
2023/07/14 01:29:13;;;;;;;11.90;8.15;;;14.40;99.90;;;;;;5098035;28;20047;-63
2023/07/14 01:31:39;;;;;;;8.02;7.22;;;14.40;99.90;;;;;;5109422;28;20035;-64
2023/07/14 01:34:05;;;;;;;9.98;7.57;;;14.40;99.90;;;;;;5110147;27;20112;-65
2023/07/14 01:36:32;;;;;;;11.52;7.80;;;14.40;99.90;;;;;;5109187;28;20089;-63
2023/07/14 01:38:57;;;;;;;8.35;6.43;;;14.30;99.90;;;;;;5110564;28;20045;-64
2023/07/14 01:41:23;;;;;;;10.38;7.93;;;14.30;99.90;;;;;;5109933;28;20130;-65
2023/07/14 01:43:49;;;;;;;12.27;7.63;;;14.30;99.90;;;;;;5109435;28;20043;-64
2023/07/14 01:46:20;;;;;;;8.40;7.38;;;14.30;99.90;;;;;;5109465;28;20051;-64
2023/07/14 01:48:57;;;;;;;8.35;7.30;;;14.30;99.90;;;;;;5112878;28;20058;-64
2023/07/14 01:51:26;;;;;;;7.68;6.85;;;14.20;99.90;;;;;;5109548;28;20043;-64
2023/07/14 01:54:13;;;;;;;7.95;7.00;;;14.20;99.90;;;;;;5109192;28;20122;-66
2023/07/14 01:56:40;;;;;;;7.93;7.13;;;14.20;99.90;;;;;;5109651;28;20047;-65
2023/07/14 01:59:19;;;;;;;8.32;6.70;;;14.20;99.90;;;;;;5109263;28;20043;-63
2023/07/14 02:01:46;;;;;;;8.88;6.55;;;14.10;99.90;;;;;;5108543;28;20123;-64
2023/07/14 02:04:25;;;;;;;9.55;6.78;;;14.10;99.90;;;;;;5108291;28;20036;-64
2023/07/14 02:06:51;;;;;;;7.15;6.43;;;14.10;99.90;;;;;;5110173;28;20067;-64
2023/07/14 02:09:20;;;;;;;9.18;6.97;;;14.10;99.90;;;;;;5108535;28;20051;-64
2023/07/14 02:11:53;;;;;;;9.57;5.95;;;14.10;99.90;;;;;;5108493;28;20040;-62
2023/07/14 02:14:21;;;;;;;9.43;6.40;;;14.10;99.90;;;;;;5109727;28;20028;-64
2023/07/14 02:16:49;;;;;;;9.07;6.28;;;14.10;99.90;;;;;;5110105;28;20078;-64
2023/07/14 02:19:22;;;;;;;8.10;5.90;;;14.00;99.90;;;;;;5108657;28;20046;-63
2023/07/14 02:21:47;;;;;;;;;;;14.00;99.90;;;;;;5109278;28;20040;-64
2023/07/14 02:24:22;;;;;;;6.70;5.30;;;14.00;99.90;;;;;;5108987;28;19920;-65
2023/07/14 02:26:56;;;;;;;7.70;5.45;;;14.00;99.90;;;;;;5106452;28;20081;-63
2023/07/14 02:29:22;;;;;;;7.88;5.47;;;13.90;99.90;;;;;;5108775;28;20447;-64
2023/07/14 02:32:27;;;;;;;6.68;5.32;;;14.00;99.90;;;;;;5109694;28;20077;-65
2023/07/14 02:35:02;;;;;;;6.22;5.63;;;14.00;99.90;;;;;;5105269;28;20032;-63
2023/07/14 02:38:03;;;;;;;7.20;5.45;;;14.00;99.90;;;;;;5141410;27;20482;-63
2023/07/14 02:40:32;;;;;;;6.78;5.57;;;14.00;99.90;;;;;;5108823;28;20375;-63
2023/07/14 02:42:58;;;;;;;7.07;5.13;;;13.90;99.90;;;;;;5110852;28;20126;-64
2023/07/14 02:45:26;;;;;;;7.97;5.80;;;13.90;99.90;;;;;;5108773;28;20118;-64
2023/07/14 02:47:57;;;;;;;11.07;5.57;;;13.90;99.90;;;;;;5138500;27;20057;-64
2023/07/14 02:50:22;;;;;;;8.77;6.00;;;13.80;99.90;;;;;;5108128;28;20044;-65
2023/07/14 02:52:48;;;;;;;7.28;5.72;;;13.80;99.90;;;;;;5108022;28;20038;-64
2023/07/14 02:55:14;;;;;;;9.10;5.80;;;13.80;99.90;;;;;;5108458;28;20058;-63
2023/07/14 02:57:39;;;;;;;7.47;5.65;;;13.80;99.90;;;;;;5112812;28;20112;-63
2023/07/14 03:00:08;;;;;;;7.72;5.57;;;13.70;99.90;;;;;;5109619;28;20042;-64
2023/07/14 03:02:34;;;;;;;8.52;5.97;;;13.70;99.90;;;;;;5108369;28;20031;-63
2023/07/14 03:05:00;;;;;;;9.13;6.63;;;13.70;99.90;;;;;;5108669;28;20153;-64
2023/07/14 03:07:26;;;;;;;8.90;6.32;;;13.60;99.90;;;;;;5107878;28;20106;-65
2023/07/14 03:09:52;;;;;;;7.30;5.90;;;13.60;99.90;;;;;;5107708;28;20126;-64
2023/07/14 03:12:20;;;;;;;9.50;6.60;;;13.60;99.90;;;;;;5110395;28;20508;-64
2023/07/14 03:14:45;;;;;;;7.20;6.32;;;13.70;99.90;;;;;;5113102;27;20047;-64
2023/07/14 03:17:12;;;;;;;7.95;6.85;;;13.60;99.90;;;;;;5111777;28;20031;-63
2023/07/14 03:19:37;;;;;;;8.60;6.35;;;13.60;99.90;;;;;;5093696;28;20180;-64
2023/07/14 03:22:03;;;;;;;9.68;7.07;;;13.60;99.90;;;;;;5093719;28;20168;-64
2023/07/14 03:24:28;;;;;;;7.90;7.10;;;13.60;99.90;;;;;;5112131;28;20122;-64
2023/07/14 03:26:54;;;;;;;11.18;6.82;;;13.60;99.90;;;;;;5111305;28;20036;-65
2023/07/14 03:29:20;;;;;;;8.30;7.10;;;13.50;99.90;;;;;;5111093;28;20394;-64
2023/07/14 03:31:45;;;;;;;7.80;6.28;;;13.50;99.90;;;;;;5111600;27;20491;-64
2023/07/14 03:34:11;;;;;;;8.60;6.30;;;13.50;99.90;;;;;;5094335;28;20050;-63
2023/07/14 03:36:37;;;;;;;7.95;6.57;;;13.40;99.90;;;;;;5112662;28;20043;-64
2023/07/14 03:39:24;;;;;;;8.95;6.88;;;13.40;99.90;;;;;;5110746;28;20050;-64
2023/07/14 03:41:51;;;;;;;9.93;7.20;;;13.40;99.90;;;;;;5111224;28;20494;-63
2023/07/14 03:44:18;;;;;;;7.65;6.80;;;13.40;99.90;;;;;;5106896;28;20035;-64
2023/07/14 03:46:44;;;;;;;11.07;6.95;;;13.40;99.90;;;;;;5111476;28;20039;-65
2023/07/14 03:49:09;;;;;;;7.75;6.93;;;13.40;99.90;;;;;;5111756;27;20406;-64
2023/07/14 03:51:35;;;;;;;7.47;6.45;;;13.50;99.90;;;;;;5111511;28;20047;-65
2023/07/14 03:54:01;;;;;;;8.57;7.40;;;13.50;99.90;;;;;;5110561;28;20047;-64
2023/07/14 03:56:26;;;;;;;8.52;6.82;;;13.50;99.90;;;;;;5111211;28;20036;-65
2023/07/14 03:58:52;;;;;;;9.65;7.10;;;13.50;99.90;;;;;;5111139;28;20062;-65
2023/07/14 04:01:18;;;;;;;8.05;6.75;;;13.50;99.90;;;;;;5110906;28;20047;-63
2023/07/14 04:03:45;;;;;;;9.13;6.63;;;13.50;99.90;;;;;;5111029;28;20051;-64
2023/07/14 04:06:11;;;;;;;8.43;6.68;;;13.50;99.90;;;;;;5110198;28;20064;-63
2023/07/14 04:08:42;;;;;;;10.02;6.78;;;13.60;99.90;;;;;;5112021;28;20047;-65
2023/07/14 04:11:09;;;;;;;7.43;6.07;;;13.60;99.90;;;;;;5110702;28;20039;-64
2023/07/14 04:13:36;;;;;;;7.93;5.95;;;13.60;99.90;;;;;;5111198;28;20775;-64
2023/07/14 04:16:07;;;;;;;8.30;5.85;;;13.70;99.90;;;;;;5110727;28;20043;-63
2023/07/14 04:18:33;;;;;;;7.72;6.63;;;13.70;99.90;;;;;;5094040;28;20134;-64
2023/07/14 04:21:06;;;;;;;10.68;6.53;;;13.80;99.90;;;;;;5110356;28;20042;-63
2023/07/14 04:23:32;;;;;;;7.43;6.38;;;13.80;99.90;;;;;;5110415;28;20047;-65
2023/07/14 04:25:58;;;;;;;10.32;6.82;;;13.80;99.90;;;;;;5092827;28;20052;-64
2023/07/14 04:28:24;;;;;;;9.85;6.63;;;13.90;99.90;;;;;;5110276;28;20043;-66
2023/07/14 04:30:58;;;;;;;9.90;6.25;;;13.90;99.90;;;;;;5110782;28;20092;-64
2023/07/14 04:33:24;;;;;;;12.23;6.25;;;13.90;99.90;;;;;;5109905;28;20040;-65
2023/07/14 04:35:51;;;;;;;9.45;6.68;;;14.00;99.90;;;;;;5110231;27;20043;-65
2023/07/14 04:38:18;;;;;;;9.45;6.25;;;14.00;99.90;;;;;;5109863;28;20070;-64
2023/07/14 04:40:44;;;;;;;9.32;6.15;;;14.10;99.90;;;;;;5111725;27;20043;-63
2023/07/14 04:43:11;;;;;;;9.00;6.38;;;14.10;99.90;;;;;;5110906;28;20035;-65
2023/07/14 04:45:41;;;;;;;8.43;6.22;;;14.20;99.90;;;;;;5109715;28;20039;-66
2023/07/14 04:48:11;;;;;;;10.25;6.70;;;14.20;99.90;;;;;;5143984;27;20059;-64
2023/07/14 04:50:37;;;;;;;8.35;6.80;;;14.20;99.90;;;;;;5109963;28;20123;-64
2023/07/14 04:53:06;;;;;;;8.73;6.90;;;14.30;99.90;;;;;;5109834;28;20438;-63
2023/07/14 04:55:40;;;;;;;9.82;6.57;;;14.30;99.90;;;;;;5109860;27;20047;-65
2023/07/14 04:58:06;;;;;;;9.73;7.20;;;14.40;99.90;;;;;;5142041;27;20398;-64
2023/07/14 05:00:32;;;;;;;13.73;6.80;;;14.40;99.90;;;;;;5109572;28;20124;-63
2023/07/14 05:03:01;;;;;;;9.75;6.97;;;14.50;99.90;;;;;;5109749;28;20067;-64
2023/07/14 05:05:26;;;;;;;9.60;8.15;;;14.50;99.90;;;;;;5110041;28;20103;-65
2023/07/14 05:07:53;;;;;;;9.05;6.90;;;14.50;99.90;;;;;;5109557;27;20221;-65
2023/07/14 05:10:21;;;;;;;10.45;7.57;;;14.60;99.90;;;;;;5108756;28;20885;-64
2023/07/14 05:12:51;;;;;;;11.30;7.55;;;14.60;99.90;;;;;;5110795;27;20043;-64
2023/07/14 05:15:16;;;;;;;8.98;7.32;;;14.70;99.90;;;;;;5092560;28;20910;-63
2023/07/14 05:17:42;;;;;;;8.70;6.97;;;14.80;99.90;;;;;;5112421;27;20092;-64
2023/07/14 05:20:13;;;;;;;9.45;8.43;;;14.80;99.90;;;;;;5109341;28;20042;-63
2023/07/14 05:22:44;;;;;;;9.88;7.28;;;14.90;99.90;;;;;;5109781;27;20044;-64
2023/07/14 05:25:10;;;;;;;13.25;8.00;;;15.00;99.90;;;;;;5104129;28;20078;-63
2023/07/14 05:27:36;;;;;;;9.95;8.27;;;15.00;99.90;;;;;;5111548;27;20063;-64
2023/07/14 05:30:03;;;;;;;11.93;8.43;;;15.20;99.90;;;;;;5108498;28;20469;-63
2023/07/14 05:32:28;;;;;;;12.60;8.23;;;15.30;99.90;;;;;;5110489;27;20505;-64
2023/07/14 05:34:54;;;;;;;10.77;7.88;;;15.30;99.90;;;;;;5108972;28;20040;-64
2023/07/14 05:37:20;;;;;;;14.07;8.25;;;15.30;99.90;;;;;;5108520;28;20982;-64
2023/07/14 05:39:46;;;;;;;9.48;7.65;;;15.30;99.90;;;;;;5108553;28;20078;-63
2023/07/14 05:42:12;;;;;;;10.65;9.30;;;15.40;99.90;;;;;;5108519;27;20092;-63
2023/07/14 05:44:37;;;;;;;9.82;8.82;;;15.50;99.90;;;;;;5107071;28;20040;-64
2023/07/14 05:47:04;;;;;;;10.48;9.00;;;15.60;99.90;;;;;;5110138;27;20043;-63
2023/07/14 05:49:29;;;;;;;11.57;9.90;;;15.70;99.90;;;;;;5090780;28;20046;-63
2023/07/14 05:51:55;;;;;;;10.55;8.98;;;15.80;99.90;;;;;;5108793;28;20035;-64
2023/07/14 05:54:21;;;;;;;12.98;9.48;;;16.00;99.90;;;;;;5109532;28;20406;-63
2023/07/14 05:56:47;;;;;;;12.50;10.25;;;16.20;99.90;;;;;;5108493;28;20047;-64
2023/07/14 05:59:13;;;;;;;13.43;9.90;;;16.30;99.90;;;;;;5109898;28;20039;-64
2023/07/14 06:01:39;;;;;;;15.15;9.70;;;16.50;99.90;;;;;;5108502;28;20039;-63
2023/07/14 06:04:05;;;;;;;14.70;10.18;;;16.70;99.90;;;;;;5108721;28;20504;-63
2023/07/14 06:06:32;;;;;;;11.77;9.63;;;16.80;99.90;;;;;;5110365;28;20043;-63
2023/07/14 06:08:59;;;;;;;13.70;9.63;;;17.00;99.90;;;;;;5108262;28;20040;-63
2023/07/14 06:11:25;;;;;;;9.90;8.88;;;17.10;99.90;;;;;;5108707;28;20039;-64
2023/07/14 06:13:51;;;;;;;10.90;9.30;;;17.30;99.90;;;;;;5108864;28;20089;-66
2023/07/14 06:16:17;;;;;;;10.48;9.23;;;17.40;99.90;;;;;;5108911;28;20402;-64
2023/07/14 06:18:43;;;;;;;10.98;8.90;;;17.60;99.90;;;;;;5108322;28;20036;-65
2023/07/14 06:21:11;;;;;;;10.85;8.55;;;17.60;99.90;;;;;;5108607;28;20040;-65
2023/07/14 06:23:36;;;;;;;12.90;9.45;;;17.80;99.90;;;;;;5091121;28;20062;-64
2023/07/14 06:26:02;;;;;;;10.30;8.85;;;17.90;99.90;;;;;;5108615;28;21672;-64
2023/07/14 06:28:27;;;;;;;12.02;8.52;;;18.00;99.90;;;;;;5110289;28;20040;-65
2023/07/14 06:30:57;;;;;;;12.25;8.73;;;18.20;99.90;;;;;;5109274;28;20047;-65
2023/07/14 06:33:24;;;;;;;13.07;8.70;;;18.30;99.90;;;;;;5106000;28;20034;-66
2023/07/14 06:35:50;;;;;;;12.15;8.73;;;18.40;99.90;;;;;;5108421;28;20039;-65
2023/07/14 06:38:16;;;;;;;12.10;8.73;;;18.40;99.90;;;;;;5108705;28;20501;-65
2023/07/14 06:40:42;;;;;;;12.90;8.52;;;18.50;99.90;;;;;;5107809;28;20054;-64
2023/07/14 06:43:09;;;;;;;13.73;8.30;;;18.70;99.90;;;;;;5108143;28;20058;-65
2023/07/14 06:45:35;;;;;;;12.13;8.55;;;18.80;99.90;;;;;;5107941;28;20152;-63
2023/07/14 06:48:02;;;;;;;11.57;8.63;;;18.90;99.90;;;;;;5110131;28;20050;-65
2023/07/14 06:50:27;;;;;;;13.52;8.90;;;18.90;99.90;;;;;;5112308;28;20098;-65
2023/07/14 06:52:53;;;;;;;12.98;8.88;;;19.00;99.90;;;;;;5112260;28;20459;-65
2023/07/14 06:55:19;;;;;;;10.65;8.45;;;19.00;99.90;;;;;;5112836;28;20031;-64
2023/07/14 06:57:45;;;;;;;11.43;8.15;;;19.00;99.90;;;;;;5112414;28;20417;-64
2023/07/14 07:00:12;;;;;;;9.25;8.05;;;19.10;99.90;;;;;;5111936;28;20044;-65
2023/07/14 07:02:39;;;;;;;11.45;7.82;;;19.20;99.90;;;;;;5111419;28;20042;-65
2023/07/14 07:05:06;;;;;;;10.68;8.18;;;19.30;99.90;;;;;;5112021;28;20463;-64
2023/07/14 07:07:33;;;;;;;12.15;8.10;;;19.30;99.90;;;;;;5111845;28;20063;-65
2023/07/14 07:09:58;;;;;;;7.53;6.15;;;19.50;99.90;;;;;;5112509;28;20056;-65
2023/07/14 07:12:24;;;;;;;9.20;5.53;;;19.60;99.90;;;;;;5111902;28;20145;-66
2023/07/14 07:14:50;;;;;;;10.23;5.72;;;19.60;99.90;;;;;;5111444;28;20138;-65
2023/07/14 07:17:16;;;;;;;6.65;4.68;;;19.60;99.90;;;;;;5111572;28;20508;-66
2023/07/14 07:19:42;;;;;;;7.38;4.85;;;19.50;99.90;;;;;;5111517;28;20040;-65
2023/07/14 07:22:08;;;;;;;9.43;4.70;;;19.60;99.90;;;;;;5111761;28;20084;-65
2023/07/14 07:24:34;;;;;;;8.63;4.20;;;19.70;99.90;;;;;;5111511;28;20490;-66
2023/07/14 07:27:01;;;;;;;5.50;3.85;;;19.80;99.90;;;;;;5112685;28;20024;-65
2023/07/14 07:29:27;;;;;;;7.90;4.10;;;19.90;99.90;;;;;;5111120;28;20046;-64
2023/07/14 07:31:53;;;;;;;7.45;4.47;;;19.90;99.90;;;;;;5112531;28;20040;-64
2023/07/14 07:34:18;;;;;;;7.50;4.28;;;19.90;99.90;;;;;;5111945;28;20046;-65
2023/07/14 07:36:44;;;;;;;5.95;4.00;;;19.90;99.90;;;;;;5110908;28;20569;-65
2023/07/14 07:39:09;;;;;;;7.00;3.95;;;19.90;99.90;;;;;;5111359;28;20036;-65
2023/07/14 07:41:35;;;;;;;6.88;3.78;;;20.20;99.90;;;;;;5111245;28;20059;-65
2023/07/14 07:44:01;;;;;;;8.20;3.88;;;20.10;99.90;;;;;;5111317;28;20039;-64
2023/07/14 07:46:27;;;;;;;6.78;3.95;;;20.20;99.90;;;;;;5110657;28;20112;-64
2023/07/14 07:48:54;;;;;;;8.13;3.60;;;20.20;99.90;;;;;;5110808;28;20044;-64
2023/07/14 07:51:20;;;;;;;5.85;3.50;;;20.30;99.90;;;;;;5110571;28;20032;-65
2023/07/14 07:53:47;;;;;;;5.35;3.42;;;20.50;99.90;;;;;;5112035;28;20482;-66
2023/07/14 07:56:13;;;;;;;5.68;2.88;;;20.40;99.90;;;;;;5110711;27;20483;-65
2023/07/14 07:58:39;;;;;;;6.40;3.10;;;20.50;99.90;;;;;;5110609;28;20513;-65
2023/07/14 08:01:06;;;;;;;5.20;3.17;;;20.60;99.90;;;;;;5094138;28;20039;-64
2023/07/14 08:03:34;;;;;;;6.10;3.50;;;20.70;99.90;;;;;;5111068;28;20043;-63
2023/07/14 08:06:02;;;;;;;5.97;3.90;;;20.60;99.90;;;;;;5111242;28;20047;-65
2023/07/14 08:08:28;;;;;;;6.35;2.90;;;20.50;99.90;;;;;;5111495;27;20048;-66
2023/07/14 08:10:54;;;;;;;6.47;2.80;;;20.50;99.90;;;;;;5110698;28;20419;-65
2023/07/14 08:13:20;;;;;;;5.35;2.63;;;20.60;99.90;;;;;;5111437;28;20040;-65
2023/07/14 08:15:45;;;;;;;6.35;2.60;;;20.80;99.90;;;;;;5110191;28;20478;-64
2023/07/14 08:18:11;;;;;;;4.15;2.65;;;20.80;99.90;;;;;;5110394;27;20078;-64
2023/07/14 08:20:37;;;;;;;7.95;2.70;;;20.80;99.90;;;;;;5092842;28;20039;-65
2023/07/14 08:23:11;;;;;;;9.15;2.80;;;20.80;99.90;;;;;;5110044;28;20397;-65
2023/07/14 08:25:39;;;;;;;7.00;3.42;;;21.00;99.90;;;;;;5110192;28;20085;-64
2023/07/14 08:28:05;;;;;;;6.60;2.95;;;20.90;99.90;;;;;;5111216;28;20035;-64
2023/07/14 08:30:31;;;;;;;4.93;3.03;;;21.10;99.90;;;;;;5110969;28;20035;-64
2023/07/14 08:32:57;;;;;;;5.00;2.67;;;21.00;99.90;;;;;;5110410;28;20398;-65
2023/07/14 08:35:23;;;;;;;4.53;2.70;;;21.20;99.90;;;;;;5110373;28;20039;-64
2023/07/14 08:37:49;;;;;;;5.70;2.95;;;21.20;99.90;;;;;;5109668;28;20122;-64
2023/07/14 08:40:38;;;;;;;37.88;4.38;;;21.40;99.90;;;;;;5109752;28;20126;-64
2023/07/14 08:44:24;;;;;;;6.95;2.80;;;21.10;99.90;;;;;;5130695;27;1249700;-64
2023/07/14 08:47:02;;;;;;;4.43;2.88;;;20.80;99.90;;;;;;5144741;27;20394;-65
2023/07/14 08:49:36;;;;;;;6.90;2.83;;;20.80;99.90;;;;;;5137775;27;20034;-64
2023/07/14 08:52:34;;;;;;;5.88;3.10;;;21.00;99.90;;;;;;5146069;27;20038;-65
2023/07/14 08:54:59;;;;;;;6.35;2.90;;;21.20;99.90;;;;;;5130182;27;20047;-65
2023/07/14 08:57:27;;;;;;;5.47;2.80;;;21.50;99.90;;;;;;5148193;27;20046;-65
2023/07/14 08:59:58;;;;;;;6.10;2.95;;;21.80;99.90;;;;;;5149844;27;20489;-65
2023/07/14 09:02:55;;;;;;;6.32;3.10;;;22.00;99.90;;;;;;5136302;27;20069;-65
2023/07/14 09:05:26;;;;;;;5.15;2.88;;;22.10;99.90;;;;;;5151541;27;20438;-65
2023/07/14 09:07:52;;;;;;;5.25;3.22;;;22.40;99.90;;;;;;5112182;27;20039;-65
2023/07/14 09:10:23;;;;;;;5.22;3.30;;;22.60;99.90;;;;;;5133252;27;20524;-65
2023/07/14 09:13:00;;;;;;;5.65;3.08;;;22.40;98.40;;;;;;5128928;27;20039;-65
2023/07/14 09:15:27;;;;;;;5.20;3.03;;;22.20;99.20;;;;;;5122899;27;20040;-64
2023/07/14 09:18:34;;;;;;;8.05;3.42;;;22.50;99.50;;;;;;5135920;27;20488;-65
2023/07/14 09:21:15;;;;;;;5.90;3.10;;;22.60;98.90;;;;;;5033796;28;20183;-64
2023/07/14 09:24:31;;;;;;;6.45;3.30;;;22.80;99.30;;;;;;5063122;28;20131;-66
2023/07/14 09:26:57;;;;;;;4.35;3.28;;;22.90;97.40;;;;;;5026977;28;20131;-65
2023/07/14 09:29:40;;;;;;;3.42;3.13;;;22.90;97.80;;;;;;5022380;28;20424;-65
2023/07/14 09:32:06;;;;;;;5.68;3.53;;;22.50;97.70;;;;;;5023718;28;20105;-64
2023/07/14 09:34:40;;;;;;;6.18;3.25;;;22.50;98.20;;;;;;5026870;28;20069;-66
2023/07/14 09:37:19;;;;;;;5.43;3.55;;;22.50;98.40;;;;;;5024293;28;20050;-66
2023/07/14 09:39:47;;;;;;;5.45;2.90;;;22.60;98.00;;;;;;5016106;28;20045;-65
2023/07/14 09:42:25;;;;;;;4.80;2.60;;;22.50;97.80;;;;;;5011734;28;21082;-66
2023/07/14 09:44:51;;;;;;;6.72;2.72;;;22.20;96.60;;;;;;5009092;28;20121;-65
2023/07/14 09:47:19;;;;;;;4.47;2.38;;;22.20;97.70;;;;;;5031063;28;20049;-66
2023/07/14 09:49:51;;;;;;;4.72;2.80;;;22.20;97.10;;;;;;5012170;28;20048;-65
2023/07/14 09:52:20;;;;;;;6.78;2.80;;;21.90;97.80;;;;;;5023622;28;20125;-65
2023/07/14 09:54:53;;;;;;;6.22;2.72;;;21.50;97.30;;;;;;5005508;28;20042;-65
2023/07/14 09:57:21;;;;;;;4.55;2.83;;;21.30;98.20;;;;;;5036599;28;20066;-65
2023/07/14 09:59:55;;;;;;;5.18;3.38;;;21.20;98.90;;;;;;5092543;27;20043;-64
2023/07/14 10:02:29;;;;;;;4.60;3.10;;;21.50;98.30;;;;;;5125027;27;20397;-66
2023/07/14 10:05:00;;;;;;;6.90;3.03;;;21.80;99.00;;;;;;5121437;27;20058;-65
2023/07/14 10:07:25;;;;;;;5.93;3.00;;;21.90;97.50;;;;;;5126659;27;20125;-65
2023/07/14 10:09:59;;;;;;;4.43;2.70;;;22.30;98.60;;;;;;5119057;27;20134;-64
2023/07/14 10:12:34;;;;;;;4.75;2.63;;;22.50;98.20;;;;;;5115017;27;20047;-65
2023/07/14 10:15:00;;;;;;;4.45;2.63;;;22.70;96.90;;;;;;5121584;27;20157;-65
2023/07/14 10:17:27;;;;;;;5.95;3.20;;;22.80;96.60;;;;;;5126435;27;20493;-65
2023/07/14 10:19:56;;;;;;;4.90;2.50;;;22.90;96.80;;;;;;5149259;27;20059;-65
2023/07/14 10:22:31;;;;;;;4.70;2.58;;;23.00;96.10;;;;;;5126545;27;20039;-64
2023/07/14 10:24:59;;;;;;;3.85;2.58;;;23.10;96.00;;;;;;5114343;27;20125;-65
2023/07/14 10:27:30;;;;;;;4.70;2.55;;;23.40;97.20;;;;;;5147949;27;20080;-65
2023/07/14 10:30:08;;;;;;;4.65;2.60;;;23.20;95.90;;;;;;5131308;27;20061;-66
2023/07/14 10:32:42;;;;;;;5.55;2.53;;;22.90;95.00;;;;;;5123712;27;20050;-65
2023/07/14 10:35:17;;;;;;;4.50;2.63;;;22.50;96.10;;;;;;5121764;27;20050;-66
2023/07/14 10:38:04;;;;;;;5.55;2.70;;;22.20;96.70;;;;;;5125833;27;20051;-66
2023/07/14 10:40:39;;;;;;;4.63;3.15;;;22.00;97.50;;;;;;5130424;27;20501;-65
2023/07/14 10:43:24;;;;;;;4.68;2.90;;;22.00;96.60;;;;;;5125095;27;20050;-66
2023/07/14 10:45:59;;;;;;;4.90;3.63;;;22.00;97.50;;;;;;5124056;27;20130;-65
2023/07/14 10:48:42;;;;;;;4.85;3.10;;;22.00;96.70;;;;;;5132204;27;20204;-65
2023/07/14 10:51:26;;;;;;;4.32;2.80;;;22.00;97.40;;;;;;5122825;27;20155;-65
2023/07/14 10:54:00;;;;;;;5.32;3.15;;;21.90;96.90;;;;;;5149306;27;20039;-66
2023/07/14 10:56:37;;;;;;;4.05;2.63;;;22.20;97.60;;;;;;5134694;27;20042;-66
2023/07/14 10:59:21;;;;;;;4.57;2.72;;;22.60;97.80;;;;;;5115716;27;20038;-65
2023/07/14 11:02:22;;;;;;;6.78;3.17;;;23.00;97.60;;;;;;5136766;27;20610;-65
2023/07/14 11:05:10;;;;;;;4.30;2.80;;;22.90;95.90;;;;;;5029103;28;20045;-65
2023/07/14 11:07:36;;;;;;;4.45;2.72;;;22.90;96.40;;;;;;5011777;28;20056;-65
2023/07/14 11:10:12;;;;;;;6.30;2.85;;;22.50;95.60;;;;;;5022237;28;20045;-65
2023/07/14 11:12:49;;;;;;;6.82;3.53;;;22.60;96.30;;;;;;5012670;28;20037;-64
2023/07/14 11:15:26;;;;;;;6.75;3.65;;;22.60;96.50;;;;;;5018703;28;20515;-66
2023/07/14 11:18:06;;;;;;;8.25;4.00;;;22.40;97.20;;;;;;5000902;28;20144;-65
2023/07/14 11:20:43;;;;;;;5.32;4.13;;;22.20;96.80;;;;;;5019481;28;20052;-66
2023/07/14 11:23:45;;;;;;;5.75;3.20;;;22.20;97.40;;;;;;5014725;28;20111;-67
2023/07/14 11:26:18;;;;;;;4.77;3.10;;;22.10;97.20;;;;;;5030219;28;20053;-67
2023/07/14 11:28:52;;;;;;;4.85;3.20;;;22.00;97.70;;;;;;5018069;28;20056;-65
2023/07/14 11:31:24;;;;;;;6.25;3.47;;;22.10;98.00;;;;;;5022901;28;20033;-66
2023/07/14 11:34:25;;;;;;;5.72;2.95;;;22.10;97.80;;;;;;5028091;28;20460;-66
2023/07/14 11:37:06;;;;;;;4.30;2.90;;;21.90;97.00;;;;;;5014190;28;20524;-66
2023/07/14 11:39:43;;;;;;;4.35;2.60;;;21.80;98.00;;;;;;5019538;28;20041;-65
2023/07/14 11:42:22;;;;;;;5.20;3.28;;;21.80;98.50;;;;;;5080853;27;20047;-66
2023/07/14 11:44:50;;;;;;;5.40;3.17;;;21.80;98.60;;;;;;5133643;27;20035;-66
2023/07/14 11:47:33;;;;;;;7.63;3.42;;;21.80;98.70;;;;;;5129619;27;20038;-66
2023/07/14 11:50:02;;;;;;;5.53;3.00;;;21.90;98.90;;;;;;5112763;27;20096;-66
2023/07/14 11:52:30;;;;;;;6.97;3.15;;;22.00;98.60;;;;;;5136310;27;20089;-65
2023/07/14 11:55:04;;;;;;;6.40;3.17;;;22.20;98.50;;;;;;5133830;27;20046;-66
2023/07/14 11:58:05;;;;;;;4.85;3.67;;;22.30;98.20;;;;;;5126668;27;20090;-66
2023/07/14 12:00:43;;;;;;;7.15;4.03;;;22.50;97.80;;;;;;5031237;28;20098;-66
2023/07/14 12:03:32;;;;;;;4.93;3.30;;;22.70;97.30;;;;;;5020985;28;20116;-65
2023/07/14 12:06:18;;;;;;;6.80;3.80;;;22.90;97.60;;;;;;5027210;28;20499;-65
2023/07/14 12:09:04;;;;;;;6.13;4.10;;;22.90;96.60;;;;;;4997942;28;20037;-66
2023/07/14 12:11:39;;;;;;;8.48;3.88;;;23.00;96.40;;;;;;5018652;28;20048;-66
2023/07/14 12:14:29;;;;;;;8.07;4.10;;;23.00;96.60;;;;;;5021174;28;21007;-66
2023/07/14 12:16:56;;;;;;;6.07;3.78;;;23.00;96.30;;;;;;5020658;28;20049;-66
2023/07/14 12:19:51;;;;;;;5.40;3.72;;;23.00;96.90;;;;;;5028072;28;20176;-65
2023/07/14 12:22:38;;;;;;;5.35;3.72;;;22.90;96.40;;;;;;5030371;28;20044;-65
2023/07/14 12:25:15;;;;;;;7.07;3.80;;;22.60;96.40;;;;;;5021250;28;20061;-66
2023/07/14 12:27:52;;;;;;;5.65;3.67;;;22.50;97.30;;;;;;5012773;28;20481;-66
2023/07/14 12:30:20;;;;;;;6.90;3.83;;;22.40;97.50;;;;;;5023438;28;20041;-66
2023/07/14 12:32:46;;;;;;;6.65;4.50;;;22.30;97.60;;;;;;5030444;28;20033;-66
2023/07/14 12:35:16;;;;;;;7.13;3.63;;;22.30;97.70;;;;;;5016690;28;20045;-66
2023/07/14 12:37:42;;;;;;;8.32;4.53;;;22.30;98.20;;;;;;5076215;27;20047;-66
2023/07/14 12:40:18;;;;;;;6.47;4.28;;;22.40;98.10;;;;;;5111873;27;20118;-66
2023/07/14 12:42:45;;;;;;;7.43;4.22;;;22.50;98.10;;;;;;5127274;27;20047;-66
2023/07/14 12:45:12;;;;;;;7.22;4.60;;;22.60;97.40;;;;;;5125800;27;20039;-66
2023/07/14 12:47:48;;;;;;;7.13;3.95;;;22.70;97.70;;;;;;5112095;27;20070;-66
2023/07/14 12:50:20;;;;;;;8.13;4.15;;;22.90;96.70;;;;;;5111675;27;20114;-66
2023/07/14 12:52:47;;;;;;;6.82;3.28;;;23.00;96.80;;;;;;5125651;27;20066;-66
2023/07/14 12:55:16;;;;;;;5.93;3.70;;;23.10;97.00;;;;;;5130732;27;20108;-66
2023/07/14 12:57:42;;;;;;;7.72;4.05;;;23.10;96.60;;;;;;5111744;27;20039;-67
2023/07/14 13:00:23;;;;;;;6.80;3.08;;;22.90;95.50;;;;;;5112375;27;20035;-65
2023/07/14 13:02:50;;;;;;;7.38;4.05;;;22.70;95.50;;;;;;5122654;27;20041;-65
2023/07/14 13:05:16;;;;;;;5.13;3.50;;;22.50;95.80;;;;;;5121642;27;20151;-65